Time;durP1;ratioP1;P1;durP2;ratioP2;P2;SDS_P1;SDS_P2;PMS_P1;PMS_P2;Temp;Humidity;BMP_temperature;BMP_pressure;BME280_temperature;BME280_humidity;BME280_pressure;Samples;Min_cycle;Max_cycle;Signal;HPM_P1;HPM_P2
2023/08/28 00:03:23;;;;;;;2.00;1.25;;;20.90;70.70;;;;;;10416160;28;20021;-53
2023/08/28 00:08:24;;;;;;;1.83;1.40;;;20.90;70.70;;;;;;10415702;28;20033;-54
2023/08/28 00:13:25;;;;;;;1.67;1.20;;;20.90;70.80;;;;;;10415881;28;20056;-54
2023/08/28 00:18:26;;;;;;;2.45;1.80;;;20.90;70.70;;;;;;10415148;28;20028;-54
2023/08/28 00:23:26;;;;;;;2.13;1.30;;;20.90;70.70;;;;;;10415859;28;20022;-51
2023/08/28 00:28:27;;;;;;;1.35;1.15;;;20.90;70.70;;;;;;10449978;28;20044;-54
2023/08/28 00:33:28;;;;;;;1.80;1.10;;;20.90;70.70;;;;;;10456617;28;20043;-53
2023/08/28 00:38:28;;;;;;;1.88;1.20;;;20.90;70.70;;;;;;10455902;28;20090;-54
2023/08/28 00:43:29;;;;;;;1.63;1.15;;;20.90;70.60;;;;;;10419856;28;20045;-54
2023/08/28 00:48:31;;;;;;;1.55;1.25;;;20.90;70.70;;;;;;10414138;28;20457;-54
2023/08/28 00:53:32;;;;;;;2.45;1.30;;;20.90;70.60;;;;;;10414252;28;20033;-54
2023/08/28 00:58:33;;;;;;;1.88;1.60;;;20.90;70.50;;;;;;10413112;28;20385;-54
2023/08/28 01:03:33;;;;;;;1.90;1.20;;;20.90;70.60;;;;;;10414239;28;20188;-54
2023/08/28 01:09:00;;;;;;;1.63;1.38;;;20.90;70.50;;;;;;10413027;28;20029;-52
2023/08/28 01:14:31;;;;;;;2.50;1.58;;;20.80;70.40;;;;;;10413261;28;20048;-52
2023/08/28 01:19:36;;;;;;;2.65;1.75;;;20.90;70.30;;;;;;10420148;28;20404;-54
2023/08/28 01:24:48;;;;;;;1.50;1.25;;;20.90;70.30;;;;;;10428967;28;20496;-52
2023/08/28 01:30:08;;;;;;;2.85;1.45;;;20.80;70.40;;;;;;10428944;28;20037;-54
2023/08/28 01:35:13;;;;;;;2.58;1.08;;;20.80;70.40;;;;;;10412892;28;20045;-54
2023/08/28 01:40:16;;;;;;;1.50;1.05;;;20.80;70.40;;;;;;10412242;28;20030;-53
2023/08/28 01:45:18;;;;;;;4.72;1.20;;;20.80;70.40;;;;;;10424162;28;20648;-52
2023/08/28 01:50:19;;;;;;;2.00;1.50;;;20.80;70.30;;;;;;10411788;28;20052;-55
2023/08/28 01:55:46;;;;;;;1.98;1.40;;;20.80;70.30;;;;;;10412019;28;20036;-54
2023/08/28 02:00:47;;;;;;;1.50;1.10;;;20.80;70.20;;;;;;10417119;28;20025;-54
2023/08/28 02:05:48;;;;;;;2.10;1.30;;;20.80;70.20;;;;;;10411431;28;20030;-54
2023/08/28 02:10:49;;;;;;;1.92;1.42;;;20.80;70.10;;;;;;10410823;28;20036;-53
2023/08/28 02:15:50;;;;;;;2.35;1.58;;;20.80;70.00;;;;;;10411149;28;20098;-54
2023/08/28 02:20:50;;;;;;;2.88;1.35;;;20.70;70.00;;;;;;10410678;28;20090;-54
2023/08/28 02:25:51;;;;;;;1.98;1.58;;;20.70;70.00;;;;;;10421726;28;20025;-54
2023/08/28 02:30:52;;;;;;;0.95;0.85;;;20.70;69.80;;;;;;10428301;28;20037;-52
2023/08/28 02:35:53;;;;;;;2.20;1.30;;;20.70;69.80;;;;;;10410240;28;20091;-53
2023/08/28 02:41:05;;;;;;;1.70;1.02;;;20.70;70.40;;;;;;10409568;28;20026;-53
2023/08/28 02:46:06;;;;;;;1.20;1.10;;;20.70;69.70;;;;;;10410057;28;20037;-54
2023/08/28 02:51:07;;;;;;;1.98;1.15;;;20.70;69.70;;;;;;10409663;28;20041;-53
2023/08/28 02:56:27;;;;;;;1.63;1.23;;;20.70;69.70;;;;;;10409806;28;20044;-52
2023/08/28 03:01:27;;;;;;;;;;;20.70;69.60;;;;;;10409533;28;20052;-50
2023/08/28 03:06:28;;;;;;;1.63;1.17;;;20.70;69.60;;;;;;10409033;28;19920;-54
2023/08/28 03:11:29;;;;;;;1.33;1.17;;;20.70;69.60;;;;;;10408547;28;20373;-52
2023/08/28 03:16:30;;;;;;;1.67;1.35;;;20.60;69.60;;;;;;10408695;28;20042;-51
2023/08/28 03:21:32;;;;;;;4.20;1.50;;;20.60;69.60;;;;;;10408192;28;20038;-51
2023/08/28 03:26:33;;;;;;;2.28;1.15;;;20.70;70.20;;;;;;10425527;28;20449;-51
2023/08/28 03:31:34;;;;;;;1.20;1.05;;;20.60;69.50;;;;;;10420029;28;20036;-53
2023/08/28 03:36:35;;;;;;;1.65;1.08;;;20.60;69.60;;;;;;10408864;28;20477;-53
2023/08/28 03:41:35;;;;;;;1.38;0.93;;;20.60;69.50;;;;;;10419517;28;20029;-54
2023/08/28 03:46:36;;;;;;;4.88;1.27;;;20.70;70.40;;;;;;10424611;28;20029;-55
2023/08/28 03:51:37;;;;;;;1.45;1.20;;;20.70;70.00;;;;;;10423488;28;20083;-53
2023/08/28 03:56:39;;;;;;;1.92;1.00;;;20.70;70.30;;;;;;10423699;28;20026;-54
2023/08/28 04:01:40;;;;;;;4.40;1.08;;;20.80;70.30;;;;;;10433879;28;20037;-52
2023/08/28 04:06:41;;;;;;;2.42;1.20;;;20.80;70.40;;;;;;10445066;28;20487;-52
2023/08/28 04:11:42;;;;;;;4.20;1.00;;;20.70;70.20;;;;;;10445784;28;20041;-52
2023/08/28 04:16:43;;;;;;;2.75;1.20;;;20.70;69.90;;;;;;10444998;28;20427;-54
2023/08/28 04:21:43;;;;;;;3.22;1.20;;;20.60;69.70;;;;;;10445779;28;20033;-52
2023/08/28 04:26:44;;;;;;;2.70;1.42;;;20.60;69.70;;;;;;10414498;28;20026;-53
2023/08/28 04:31:45;;;;;;;1.67;1.10;;;20.60;69.70;;;;;;10417665;28;20035;-52
2023/08/28 04:36:45;;;;;;;1.45;1.08;;;20.60;69.70;;;;;;10435240;28;20025;-52
2023/08/28 04:41:46;;;;;;;2.20;1.30;;;20.60;69.70;;;;;;10432712;28;20527;-52
2023/08/28 04:46:47;;;;;;;2.75;1.80;;;20.50;69.60;;;;;;10414093;28;20099;-53
2023/08/28 04:51:48;;;;;;;1.25;1.05;;;20.60;69.70;;;;;;10413562;28;20029;-49
2023/08/28 04:56:49;;;;;;;1.85;1.40;;;20.60;69.70;;;;;;10413288;28;20045;-52
2023/08/28 05:01:49;;;;;;;2.85;1.02;;;20.50;69.60;;;;;;10412755;28;20432;-55
2023/08/28 05:06:50;;;;;;;3.25;1.90;;;20.50;69.70;;;;;;10412940;28;20025;-51
2023/08/28 05:11:51;;;;;;;8.93;1.58;;;20.70;71.70;;;;;;10413084;28;20026;-52
2023/08/28 05:16:52;;;;;;;4.75;1.73;;;20.90;70.40;;;;;;10412512;28;20037;-50
2023/08/28 05:21:52;;;;;;;7.63;2.50;;;20.90;71.10;;;;;;10412452;28;20384;-53
2023/08/28 05:26:53;;;;;;;8.30;2.20;;;20.90;70.80;;;;;;10432693;28;20028;-53
2023/08/28 05:31:54;;;;;;;7.00;1.83;;;20.90;70.90;;;;;;10421517;28;20032;-53
2023/08/28 05:36:54;;;;;;;11.52;2.50;;;20.90;71.20;;;;;;10412089;28;20569;-54
2023/08/28 05:41:55;;;;;;;8.88;2.92;;;20.90;71.20;;;;;;10411397;28;20037;-54
2023/08/28 05:46:56;;;;;;;9.45;2.67;;;20.90;70.90;;;;;;10411506;28;20033;-53
2023/08/28 05:51:57;;;;;;;12.25;2.40;;;20.90;71.20;;;;;;10425347;28;20021;-54
2023/08/28 05:56:57;;;;;;;8.93;2.40;;;20.80;70.80;;;;;;10436343;28;20051;-54
2023/08/28 06:01:59;;;;;;;6.80;2.50;;;20.70;71.00;;;;;;10410619;28;20033;-56
2023/08/28 06:06:59;;;;;;;12.60;3.50;;;20.70;70.60;;;;;;10412794;28;20116;-55
2023/08/28 06:12:00;;;;;;;8.85;2.40;;;20.70;70.80;;;;;;10451290;28;20364;-52
2023/08/28 06:17:01;;;;;;;12.77;3.35;;;20.70;70.80;;;;;;10451641;28;20051;-53
2023/08/28 06:22:05;;;;;;;10.10;3.45;;;20.70;71.00;;;;;;10451118;28;20028;-55
2023/08/28 06:27:06;;;;;;;11.80;2.72;;;20.70;70.90;;;;;;10416824;28;20029;-54
2023/08/28 06:32:07;;;;;;;12.20;2.78;;;20.60;70.60;;;;;;10414655;28;20033;-53
2023/08/28 06:37:07;;;;;;;8.18;3.15;;;20.60;70.70;;;;;;10409559;28;20057;-54
2023/08/28 06:42:08;;;;;;;11.45;3.10;;;20.60;70.60;;;;;;10409557;28;20037;-54
2023/08/28 06:47:09;;;;;;;8.43;2.78;;;20.60;70.60;;;;;;10409356;28;20032;-54
2023/08/28 06:52:10;;;;;;;7.13;2.92;;;20.60;70.70;;;;;;10408744;28;20037;-54
2023/08/28 06:57:10;;;;;;;6.57;2.63;;;20.60;70.70;;;;;;10408070;28;20431;-54
2023/08/28 07:02:11;;;;;;;5.25;1.77;;;20.60;70.70;;;;;;10408533;28;20683;-54
2023/08/28 07:07:19;;;;;;;5.53;2.42;;;20.60;70.70;;;;;;10408643;28;20136;-55
2023/08/28 07:12:20;;;;;;;6.72;2.55;;;20.60;71.30;;;;;;10434075;28;20468;-54
2023/08/28 07:17:21;;;;;;;5.60;2.25;;;20.60;70.80;;;;;;10449549;28;20037;-54
2023/08/28 07:22:22;;;;;;;4.82;2.08;;;20.60;70.80;;;;;;10426664;28;20041;-54
2023/08/28 07:27:23;;;;;;;5.53;2.92;;;20.60;70.80;;;;;;10443818;28;20034;-55
2023/08/28 07:32:24;;;;;;;10.43;2.67;;;20.70;70.70;;;;;;10409424;28;20037;-53
2023/08/28 07:37:31;;;;;;;8.05;2.55;;;20.70;70.60;;;;;;10416727;28;20041;-53
2023/08/28 07:42:36;;;;;;;12.52;2.38;;;20.70;70.70;;;;;;10448497;28;20020;-54
2023/08/28 07:47:38;;;;;;;8.90;2.70;;;20.70;70.80;;;;;;10449008;28;20233;-54
2023/08/28 07:52:38;;;;;;;6.57;2.53;;;20.70;71.00;;;;;;10448546;28;20112;-54
2023/08/28 07:57:39;;;;;;;7.50;2.35;;;20.70;71.00;;;;;;10448856;28;20029;-53
2023/08/28 08:02:41;;;;;;;9.15;2.55;;;20.70;71.00;;;;;;10448388;28;20029;-53
2023/08/28 08:07:41;;;;;;;10.48;2.53;;;20.70;70.90;;;;;;10450190;28;20056;-54
2023/08/28 08:12:44;;;;;;;8.77;3.10;;;20.70;70.80;;;;;;10456252;28;20057;-54
2023/08/28 08:17:45;;;;;;;9.65;2.50;;;20.80;71.00;;;;;;10456220;28;20029;-53
2023/08/28 08:22:46;;;;;;;8.15;2.55;;;20.90;71.10;;;;;;10456669;28;20029;-55
2023/08/28 08:27:47;;;;;;;10.68;4.18;;;20.90;70.70;;;;;;10419939;28;20025;-52
2023/08/28 08:32:48;;;;;;;9.13;3.22;;;20.80;70.80;;;;;;10413033;28;20180;-53
2023/08/28 08:37:52;;;;;;;9.00;3.35;;;20.80;70.90;;;;;;10414421;28;20052;-53
2023/08/28 08:42:54;;;;;;;6.53;2.97;;;20.80;70.90;;;;;;10413866;28;20029;-52
2023/08/28 08:47:59;;;;;;;5.05;2.30;;;20.80;71.00;;;;;;10413980;28;20029;-53
2023/08/28 08:53:19;;;;;;;6.55;2.15;;;20.80;71.00;;;;;;10413567;28;20100;-52
2023/08/28 08:58:21;;;;;;;5.72;2.50;;;20.90;70.90;;;;;;10423930;28;20033;-54
2023/08/28 09:03:22;;;;;;;4.78;2.33;;;20.90;71.00;;;;;;10427167;28;20113;-54
2023/08/28 09:08:24;;;;;;;6.20;2.08;;;20.90;70.80;;;;;;10412872;28;20037;-54
2023/08/28 09:13:25;;;;;;;5.57;2.60;;;20.90;70.70;;;;;;10412806;28;20042;-52
2023/08/28 09:18:26;;;;;;;3.88;1.90;;;20.90;70.80;;;;;;10416106;28;20492;-54
2023/08/28 09:23:31;;;;;;;3.42;2.20;;;20.90;70.80;;;;;;10411928;28;20045;-54
2023/08/28 09:28:32;;;;;;;8.32;1.85;;;20.90;70.70;;;;;;10441287;28;20033;-54
2023/08/28 09:33:45;;;;;;;5.18;2.83;;;20.90;70.60;;;;;;10427320;28;20029;-54
2023/08/28 09:38:46;;;;;;;4.22;1.70;;;20.90;70.50;;;;;;10452960;28;20166;-55
2023/08/28 09:43:49;;;;;;;4.30;1.85;;;20.90;70.50;;;;;;10452799;28;20174;-55
2023/08/28 09:48:50;;;;;;;7.95;1.85;;;20.90;70.80;;;;;;10452733;28;20438;-55
2023/08/28 09:53:59;;;;;;;7.30;2.08;;;20.90;70.50;;;;;;10450171;28;20033;-55
2023/08/28 09:59:04;;;;;;;10.43;2.25;;;21.00;70.60;;;;;;10453083;28;20033;-54
2023/08/28 10:04:08;;;;;;;9.52;2.00;;;21.00;70.50;;;;;;10433606;28;20101;-51
2023/08/28 10:09:18;;;;;;;10.77;1.92;;;21.00;70.30;;;;;;10410786;28;20030;-55
2023/08/28 10:14:22;;;;;;;5.38;1.80;;;21.10;70.40;;;;;;10410099;28;20064;-55
2023/08/28 10:19:36;;;;;;;2.85;1.60;;;21.00;70.30;;;;;;10421321;28;20431;-54
2023/08/28 10:24:44;;;;;;;3.78;1.65;;;21.00;70.40;;;;;;10424695;28;20128;-55
2023/08/28 10:29:49;;;;;;;5.30;1.70;;;21.00;70.50;;;;;;10436780;28;20029;-54
2023/08/28 10:34:52;;;;;;;2.95;1.65;;;21.00;70.30;;;;;;10437553;28;20030;-54
2023/08/28 10:40:01;;;;;;;3.50;1.60;;;21.10;70.20;;;;;;10409784;28;20021;-53
2023/08/28 10:45:02;;;;;;;4.63;2.00;;;21.10;70.20;;;;;;10409148;28;20037;-54
2023/08/28 10:50:07;;;;;;;4.47;1.40;;;21.20;70.20;;;;;;10409627;28;20056;-55
2023/08/28 10:55:09;;;;;;;3.72;1.38;;;21.10;70.10;;;;;;10408617;28;20104;-53
2023/08/28 11:00:15;;;;;;;2.58;1.20;;;21.10;70.20;;;;;;10408917;28;20119;-54
2023/08/28 11:05:16;;;;;;;4.63;1.65;;;21.10;70.20;;;;;;10436009;28;20017;-54
2023/08/28 11:10:20;;;;;;;2.72;1.70;;;21.10;70.20;;;;;;10450315;28;20464;-54
2023/08/28 11:15:30;;;;;;;2.38;1.38;;;21.10;70.30;;;;;;10448967;28;20141;-54
2023/08/28 11:20:36;;;;;;;1.50;1.20;;;21.20;70.40;;;;;;10449727;28;20082;-54
2023/08/28 11:25:40;;;;;;;4.00;1.17;;;21.20;70.20;;;;;;10426359;28;20429;-54
2023/08/28 11:30:41;;;;;;;3.47;1.23;;;21.30;70.20;;;;;;10412885;28;20041;-54
2023/08/28 11:35:41;;;;;;;3.22;1.50;;;21.30;70.10;;;;;;10407723;28;20025;-55
2023/08/28 11:40:43;;;;;;;2.45;1.10;;;21.30;69.80;;;;;;10407832;28;20469;-54
2023/08/28 11:45:45;;;;;;;3.47;1.35;;;21.30;69.90;;;;;;10416674;28;20033;-56
2023/08/28 11:50:45;;;;;;;1.88;1.30;;;21.30;69.80;;;;;;10432191;28;20033;-55
2023/08/28 11:55:46;;;;;;;3.35;1.60;;;21.40;69.60;;;;;;10416681;28;20056;-55
2023/08/28 12:00:48;;;;;;;3.10;1.38;;;21.40;69.60;;;;;;10416771;28;20048;-55
2023/08/28 12:05:49;;;;;;;1.17;0.82;;;21.40;69.60;;;;;;10421853;28;20037;-55
2023/08/28 12:10:50;;;;;;;2.10;1.20;;;21.40;69.50;;;;;;10416588;28;20516;-55
2023/08/28 12:15:51;;;;;;;2.17;1.10;;;21.40;69.50;;;;;;10424595;28;20129;-56
2023/08/28 12:21:02;;;;;;;16.58;2.15;;;21.30;69.50;;;;;;10415796;28;20017;-55
2023/08/28 12:26:03;;;;;;;11.40;2.35;;;21.40;70.10;;;;;;10428369;28;20053;-57
2023/08/28 12:31:04;;;;;;;5.97;1.70;;;21.40;69.80;;;;;;10434239;28;20527;-57
2023/08/28 12:36:05;;;;;;;5.43;1.33;;;21.40;69.40;;;;;;10453582;28;20046;-55
2023/08/28 12:41:05;;;;;;;4.88;1.60;;;21.40;69.40;;;;;;10456537;28;20072;-54
2023/08/28 12:46:06;;;;;;;5.00;1.50;;;21.40;69.30;;;;;;10433630;28;20035;-55
2023/08/28 12:51:07;;;;;;;11.80;2.38;;;21.40;69.10;;;;;;10430571;28;20026;-56
2023/08/28 12:56:08;;;;;;;26.17;1.98;;;21.40;69.30;;;;;;10420936;28;20045;-55
2023/08/28 13:01:09;;;;;;;15.02;2.00;;;21.80;68.00;;;;;;10414548;28;20029;-55
2023/08/28 13:06:09;;;;;;;13.90;2.88;;;21.70;68.20;;;;;;10423633;28;20029;-57
2023/08/28 13:11:10;;;;;;;12.00;2.03;;;21.60;68.60;;;;;;10413967;28;20029;-57
2023/08/28 13:16:11;;;;;;;21.52;2.20;;;21.50;68.90;;;;;;10413565;28;20041;-56
2023/08/28 13:21:12;;;;;;;8.85;2.08;;;21.70;70.00;;;;;;10413555;28;20033;-57
2023/08/28 13:26:12;;;;;;;15.95;2.92;;;21.70;69.90;;;;;;10427926;28;20410;-57
2023/08/28 13:31:13;;;;;;;10.13;2.22;;;21.60;69.20;;;;;;10433364;28;20029;-58
2023/08/28 13:36:14;;;;;;;12.27;2.10;;;21.50;69.10;;;;;;10451761;28;20552;-57
2023/08/28 13:41:15;;;;;;;8.13;1.80;;;21.50;69.40;;;;;;10453694;28;20024;-58
2023/08/28 13:46:16;;;;;;;6.30;1.67;;;21.40;69.40;;;;;;10453886;28;20032;-58
2023/08/28 13:51:17;;;;;;;9.55;1.95;;;21.40;69.30;;;;;;10428869;28;20030;-57
2023/08/28 13:56:17;;;;;;;9.85;1.75;;;21.40;69.60;;;;;;10440526;28;20037;-57
2023/08/28 14:01:18;;;;;;;6.57;1.73;;;21.30;69.50;;;;;;10451816;28;20468;-57
2023/08/28 14:06:19;;;;;;;4.88;1.25;;;21.30;69.40;;;;;;10452966;28;20029;-58
2023/08/28 14:11:19;;;;;;;5.15;1.30;;;21.20;69.60;;;;;;10452635;28;20083;-57
2023/08/28 14:16:20;;;;;;;11.95;5.10;;;21.20;69.60;;;;;;10438574;28;20102;-58
2023/08/28 14:21:21;;;;;;;24.00;4.03;;;21.30;70.70;;;;;;10429150;28;20027;-58
2023/08/28 14:26:22;;;;;;;15.20;6.72;;;21.20;69.90;;;;;;10426384;28;20021;-61
2023/08/28 14:31:23;;;;;;;26.88;4.45;;;21.30;73.20;;;;;;10418568;28;20078;-61
2023/08/28 14:36:24;;;;;;;14.82;2.85;;;21.40;70.20;;;;;;10410612;28;20033;-58
2023/08/28 14:41:25;;;;;;;11.88;2.85;;;21.40;69.50;;;;;;10410350;28;20018;-57
2023/08/28 14:46:26;;;;;;;8.93;3.55;;;21.60;69.50;;;;;;10415802;28;20040;-58
2023/08/28 14:51:26;;;;;;;24.10;2.25;;;21.60;69.10;;;;;;10418862;28;20033;-57
2023/08/28 14:56:27;;;;;;;7.15;1.95;;;21.70;69.00;;;;;;10426834;28;20029;-57
2023/08/28 15:01:28;;;;;;;23.38;3.13;;;21.60;69.00;;;;;;10426444;28;20025;-57
2023/08/28 15:06:29;;;;;;;14.98;2.78;;;21.60;69.30;;;;;;10423312;28;20488;-57
2023/08/28 15:11:29;;;;;;;9.43;2.38;;;21.40;69.10;;;;;;10424219;28;20453;-57
2023/08/28 15:16:30;;;;;;;10.52;2.20;;;21.40;69.00;;;;;;10447862;28;20383;-57
2023/08/28 15:21:31;;;;;;;7.82;2.13;;;21.30;69.20;;;;;;10449340;28;20017;-57
2023/08/28 15:26:32;;;;;;;9.40;2.22;;;21.30;69.30;;;;;;10419526;28;20029;-58
2023/08/28 15:31:32;;;;;;;5.57;2.05;;;21.30;69.40;;;;;;10412938;28;20392;-57
2023/08/28 15:36:33;;;;;;;5.95;1.65;;;21.20;69.30;;;;;;10408271;28;20025;-58
2023/08/28 15:41:35;;;;;;;4.53;1.73;;;21.30;69.50;;;;;;10421140;28;20596;-57
2023/08/28 15:46:36;;;;;;;6.07;1.23;;;21.20;69.40;;;;;;10407733;28;20078;-58
2023/08/28 15:51:36;;;;;;;9.10;1.58;;;21.20;69.40;;;;;;10407490;28;20025;-56
2023/08/28 15:56:38;;;;;;;8.63;1.58;;;21.20;69.50;;;;;;10407361;28;20030;-57
2023/08/28 16:01:39;;;;;;;5.70;1.83;;;21.20;69.50;;;;;;10420656;28;20056;-57
2023/08/28 16:06:39;;;;;;;3.42;1.15;;;21.20;69.50;;;;;;10407776;28;20026;-57
2023/08/28 16:11:51;;;;;;;4.18;1.35;;;21.20;69.60;;;;;;10406775;28;20132;-58
2023/08/28 16:16:51;;;;;;;6.20;1.35;;;21.20;69.60;;;;;;10406955;28;20141;-57
2023/08/28 16:21:52;;;;;;;3.25;1.00;;;21.20;69.60;;;;;;10406796;28;20033;-57
2023/08/28 16:26:53;;;;;;;3.50;1.17;;;21.20;69.60;;;;;;10420287;28;20392;-56
2023/08/28 16:31:54;;;;;;;3.45;1.20;;;21.20;69.60;;;;;;10417993;28;20408;-57
2023/08/28 16:36:55;;;;;;;3.97;1.35;;;21.20;69.70;;;;;;10414193;28;20428;-58
2023/08/28 16:41:57;;;;;;;2.60;1.38;;;21.20;69.80;;;;;;10428970;28;20037;-58
2023/08/28 16:46:57;;;;;;;5.35;1.27;;;21.20;70.30;;;;;;10414058;28;20033;-58
2023/08/28 16:51:58;;;;;;;18.48;2.78;;;21.20;70.30;;;;;;10413460;28;20490;-57
2023/08/28 16:56:59;;;;;;;5.60;1.50;;;21.20;70.50;;;;;;10413713;28;20037;-58
2023/08/28 17:02:00;;;;;;;3.53;1.10;;;21.20;70.60;;;;;;10413238;28;20017;-57
2023/08/28 17:07:01;;;;;;;3.05;1.35;;;21.10;69.80;;;;;;10414871;28;20045;-58
2023/08/28 17:12:01;;;;;;;6.03;1.65;;;21.20;70.00;;;;;;10429887;28;20041;-58
2023/08/28 17:17:03;;;;;;;10.73;2.28;;;21.30;70.30;;;;;;10453208;28;20033;-57
2023/08/28 17:22:03;;;;;;;7.68;2.17;;;21.30;70.00;;;;;;10435946;28;20060;-58
2023/08/28 17:27:04;;;;;;;6.47;1.60;;;21.20;70.30;;;;;;10419723;28;20048;-58
2023/08/28 17:32:05;;;;;;;4.82;1.58;;;21.20;70.50;;;;;;10427641;28;20111;-56
2023/08/28 17:37:06;;;;;;;9.73;1.65;;;21.20;70.70;;;;;;10422863;28;20029;-58
2023/08/28 17:42:07;;;;;;;8.48;2.05;;;21.20;70.80;;;;;;10411390;28;20641;-60
2023/08/28 17:47:10;;;;;;;8.25;1.85;;;21.20;70.80;;;;;;10428698;28;20041;-60
2023/08/28 17:52:11;;;;;;;4.47;1.48;;;21.20;70.80;;;;;;10433787;28;20021;-60
2023/08/28 17:57:11;;;;;;;4.80;1.60;;;21.30;71.00;;;;;;10438875;28;20033;-59
2023/08/28 18:02:12;;;;;;;7.68;1.63;;;21.30;71.00;;;;;;10435936;28;20029;-59
2023/08/28 18:07:13;;;;;;;6.63;1.90;;;21.30;71.00;;;;;;10422964;28;20040;-60
2023/08/28 18:12:16;;;;;;;5.95;1.92;;;21.30;71.30;;;;;;10418925;28;20039;-57
2023/08/28 18:17:18;;;;;;;12.43;1.70;;;21.40;71.10;;;;;;10422771;28;20507;-58
2023/08/28 18:22:19;;;;;;;9.65;1.30;;;21.30;70.70;;;;;;10422075;28;20396;-58
2023/08/28 18:27:19;;;;;;;8.05;2.45;;;21.20;71.10;;;;;;10409772;28;20042;-57
2023/08/28 18:32:20;;;;;;;7.93;2.05;;;21.20;71.40;;;;;;10430141;28;20036;-57
2023/08/28 18:37:21;;;;;;;15.57;3.30;;;21.20;71.40;;;;;;10412289;28;20029;-57
2023/08/28 18:42:21;;;;;;;7.65;1.75;;;21.20;71.50;;;;;;10413537;28;20035;-57
2023/08/28 18:47:22;;;;;;;7.90;1.80;;;21.20;71.60;;;;;;10409044;28;20511;-57
2023/08/28 18:52:23;;;;;;;8.63;1.63;;;21.20;71.60;;;;;;10408649;28;20044;-57
2023/08/28 18:57:24;;;;;;;5.25;1.95;;;21.20;71.50;;;;;;10410552;28;20495;-57
2023/08/28 19:02:24;;;;;;;6.93;1.88;;;21.20;71.70;;;;;;10412776;28;20052;-57
2023/08/28 19:07:26;;;;;;;3.78;1.30;;;21.20;71.70;;;;;;10420840;28;20041;-57
2023/08/28 19:12:27;;;;;;;4.03;1.30;;;21.20;71.70;;;;;;10416778;28;20068;-58
2023/08/28 19:17:28;;;;;;;6.88;1.80;;;21.20;71.70;;;;;;10417161;28;20049;-57
2023/08/28 19:22:29;;;;;;;4.45;1.10;;;21.20;71.80;;;;;;10420667;28;20434;-57
2023/08/28 19:27:30;;;;;;;6.25;1.17;;;21.20;71.70;;;;;;10414325;28;20554;-57
2023/08/28 19:32:37;;;;;;;5.75;1.70;;;21.20;71.90;;;;;;10421310;28;20094;-56
2023/08/28 19:37:42;;;;;;;3.92;1.20;;;21.20;72.00;;;;;;10403702;28;20103;-56
2023/08/28 19:42:43;;;;;;;6.45;2.05;;;21.20;72.00;;;;;;10418713;28;20036;-57
2023/08/28 19:47:44;;;;;;;7.30;1.40;;;21.20;72.00;;;;;;10410960;28;20056;-57
2023/08/28 19:52:46;;;;;;;5.07;1.30;;;21.20;71.90;;;;;;10413052;28;20026;-57
2023/08/28 19:57:46;;;;;;;4.03;1.10;;;21.10;71.60;;;;;;10408706;28;20043;-57
2023/08/28 20:02:48;;;;;;;4.60;1.42;;;21.10;71.60;;;;;;10408584;28;20033;-57
2023/08/28 20:07:48;;;;;;;3.83;1.23;;;21.10;71.70;;;;;;10416586;28;20037;-58
2023/08/28 20:12:49;;;;;;;3.15;1.25;;;21.10;72.00;;;;;;10416226;28;20055;-57
2023/08/28 20:17:50;;;;;;;3.38;1.25;;;21.10;72.10;;;;;;10416341;28;20025;-57
2023/08/28 20:22:51;;;;;;;2.22;1.00;;;21.10;72.00;;;;;;10416020;28;20021;-57
2023/08/28 20:27:52;;;;;;;1.90;0.82;;;21.10;71.90;;;;;;10444496;28;20043;-57
2023/08/28 20:32:52;;;;;;;3.65;1.42;;;21.00;71.60;;;;;;10418629;28;20476;-57
2023/08/28 20:37:53;;;;;;;1.60;0.88;;;21.00;71.50;;;;;;10415765;28;20029;-57
2023/08/28 20:42:54;;;;;;;1.88;0.60;;;21.00;71.50;;;;;;10414979;28;20060;-58
2023/08/28 20:47:55;;;;;;;3.63;0.98;;;21.00;71.60;;;;;;10415459;28;20033;-58
2023/08/28 20:52:56;;;;;;;2.90;1.00;;;21.00;71.60;;;;;;10414760;28;20029;-57
2023/08/28 20:57:57;;;;;;;2.47;0.52;;;20.90;71.30;;;;;;10414650;28;20033;-58
2023/08/28 21:02:58;;;;;;;2.38;0.80;;;20.90;71.30;;;;;;10414420;28;20025;-58
2023/08/28 21:07:58;;;;;;;2.28;0.90;;;20.90;71.30;;;;;;10414022;28;20029;-57
2023/08/28 21:12:59;;;;;;;0.80;0.60;;;20.90;71.40;;;;;;10413812;28;20056;-57
2023/08/28 21:18:00;;;;;;;2.13;0.93;;;20.90;71.30;;;;;;10413633;28;20481;-57
2023/08/28 21:23:01;;;;;;;2.05;0.90;;;20.90;71.30;;;;;;10413289;28;20049;-57
2023/08/28 21:28:02;;;;;;;1.58;0.70;;;20.90;71.30;;;;;;10443121;28;20032;-57
2023/08/28 21:33:03;;;;;;;2.13;1.23;;;20.90;71.90;;;;;;10413142;28;20029;-58
2023/08/28 21:38:04;;;;;;;2.50;0.85;;;20.90;71.30;;;;;;10426481;28;20026;-58
2023/08/28 21:43:05;;;;;;;3.20;1.00;;;20.90;71.20;;;;;;10412816;28;20128;-58
2023/08/28 21:48:06;;;;;;;2.95;1.00;;;20.90;71.50;;;;;;10420751;28;20091;-57
2023/08/28 21:53:06;;;;;;;1.70;0.80;;;20.90;71.60;;;;;;10412358;28;20033;-56
2023/08/28 21:58:07;;;;;;;3.58;1.05;;;20.90;71.50;;;;;;10412103;28;20242;-57
2023/08/28 22:03:08;;;;;;;2.67;0.93;;;20.90;71.50;;;;;;10424048;28;20034;-58
2023/08/28 22:08:10;;;;;;;2.40;1.10;;;20.90;71.50;;;;;;10411769;28;20034;-57
2023/08/28 22:13:13;;;;;;;1.38;0.68;;;20.90;71.50;;;;;;10411326;28;20045;-57
2023/08/28 22:18:14;;;;;;;1.20;0.80;;;20.80;71.50;;;;;;10411238;28;20029;-57
2023/08/28 22:23:14;;;;;;;1.85;1.00;;;20.90;71.50;;;;;;10411126;28;20047;-57
2023/08/28 22:28:16;;;;;;;1.75;0.50;;;20.80;71.40;;;;;;10439995;28;20029;-57
2023/08/28 22:33:17;;;;;;;2.60;1.10;;;20.80;71.40;;;;;;10410825;28;20112;-58
2023/08/28 22:38:19;;;;;;;2.00;0.80;;;20.80;71.40;;;;;;10410469;28;20029;-57
2023/08/28 22:43:19;;;;;;;2.83;1.13;;;20.80;72.00;;;;;;10410748;28;20115;-57
2023/08/28 22:48:20;;;;;;;1.75;1.00;;;20.80;71.30;;;;;;10409958;28;20045;-57
2023/08/28 22:53:21;;;;;;;1.73;0.88;;;20.80;71.30;;;;;;10410051;28;20530;-57
2023/08/28 22:58:22;;;;;;;1.83;1.20;;;20.80;71.30;;;;;;10409760;28;20033;-57
2023/08/28 23:03:22;;;;;;;2.05;0.70;;;20.80;71.50;;;;;;10409711;28;20539;-57
2023/08/28 23:08:23;;;;;;;2.95;1.25;;;20.80;71.50;;;;;;10409298;28;20067;-57
2023/08/28 23:13:24;;;;;;;1.98;0.80;;;20.80;71.50;;;;;;10409285;28;20053;-57
2023/08/28 23:18:25;;;;;;;3.15;1.02;;;20.80;71.50;;;;;;10408848;28;20056;-57
2023/08/28 23:23:26;;;;;;;1.30;0.88;;;20.80;71.50;;;;;;10409220;28;20393;-57
2023/08/28 23:28:26;;;;;;;1.08;0.63;;;20.80;71.30;;;;;;10441233;28;20033;-57
2023/08/28 23:33:27;;;;;;;2.20;1.05;;;20.70;71.20;;;;;;10450315;28;20036;-57
2023/08/28 23:38:28;;;;;;;1.27;0.90;;;20.70;71.00;;;;;;10464547;28;20094;-57
2023/08/28 23:43:30;;;;;;;3.70;1.10;;;20.70;71.00;;;;;;10450136;28;20021;-57
2023/08/28 23:48:30;;;;;;;1.95;0.90;;;20.70;71.10;;;;;;10425264;28;20472;-57
2023/08/28 23:53:31;;;;;;;2.22;1.10;;;20.70;71.00;;;;;;10434298;28;20021;-57
2023/08/28 23:58:32;;;;;;;2.80;1.00;;;20.70;71.00;;;;;;10408010;28;20377;-57
